Terminal Aerodrome Forecast
Issued by NWS

Home | Current Version | Previous Version | Text Only | Print | Product List | Glossary On
Versions: 1 2 3 4 5 6 7 8 9 10 11 12 13 14
000
FTAK31 PAJN 070900 AAA
TAFASI
TAF AMD
PASI 070904Z 0709/0806 33006KT P6SM BCFG SCT005 SCT150
      TEMPO 0711/0715 VRB03KT 6SM BR BKN004
     FM071800 29005KT P6SM SCT200
     FM072100 30010KT P6SM SCT150=

USA.gov is the U.S. government's official web portal to all federal, state and local government web resources and services.